Time;durP1;ratioP1;P1;durP2;ratioP2;P2;SDS_P1;SDS_P2;PMS_P1;PMS_P2;Temp;Humidity;BMP_temperature;BMP_pressure;BME280_temperature;BME280_humidity;BME280_pressure;Samples;Min_cycle;Max_cycle;Signal;HPM_P1;HPM_P2
2023/02/02 00:00:16;;;;;;;2.83;1.50;;;;;;;4.43;100.00;99617.22;5024112;28;20049;-79
2023/02/02 00:02:43;;;;;;;13.50;2.33;;;;;;;4.35;100.00;99604.44;5023608;28;20048;-79
2023/02/02 00:05:10;;;;;;;4.18;1.50;;;;;;;4.50;100.00;99633.69;5026354;28;20053;-79
2023/02/02 00:07:36;;;;;;;12.30;2.08;;;;;;;4.38;100.00;99608.69;5026670;28;20056;-79
2023/02/02 00:10:03;;;;;;;10.30;2.45;;;;;;;4.48;100.00;99622.22;5025291;28;20427;-80
2023/02/02 00:12:31;;;;;;;14.68;2.80;;;;;;;4.38;100.00;99598.78;5024881;28;20072;-79
2023/02/02 00:15:00;;;;;;;8.25;2.10;;;;;;;4.52;100.00;99612.88;5029886;28;20056;-78
2023/02/02 00:17:26;;;;;;;17.67;2.58;;;;;;;4.49;100.00;99610.47;5033996;28;20061;-79
2023/02/02 00:19:53;;;;;;;8.15;2.45;;;;;;;4.45;100.00;99595.56;5028244;28;20053;-79
2023/02/02 00:22:19;;;;;;;9.95;1.98;;;;;;;4.53;100.00;99614.56;5021979;28;21929;-79
2023/02/02 00:24:46;;;;;;;8.50;2.28;;;;;;;4.41;100.00;99603.91;5026039;28;20056;-79
2023/02/02 00:27:13;;;;;;;11.32;2.45;;;;;;;4.57;100.00;99622.25;5024955;28;20066;-79
2023/02/02 00:29:41;;;;;;;11.07;2.70;;;;;;;4.48;100.00;99601.50;5028419;28;20343;-79
2023/02/02 00:32:07;;;;;;;9.45;2.35;;;;;;;4.45;100.00;99593.72;5026090;28;20516;-78
2023/02/02 00:34:34;;;;;;;14.75;2.33;;;;;;;4.53;100.00;99612.75;5024398;28;20049;-78
2023/02/02 00:37:00;;;;;;;14.57;2.90;;;;;;;4.47;100.00;99591.75;5026958;28;20057;-78
2023/02/02 00:39:27;;;;;;;16.88;2.50;;;;;;;4.56;100.00;99611.59;5028450;28;20053;-79
2023/02/02 00:41:53;;;;;;;9.25;2.50;;;;;;;4.37;100.00;99582.78;5023508;28;20061;-79
2023/02/02 00:47:06;;;;;;;12.77;2.78;;;;;;;4.48;100.00;99603.38;5025748;28;20135;-80
2023/02/02 00:49:32;;;;;;;19.10;2.53;;;;;;;4.48;100.00;99608.75;5035544;28;20048;-78
2023/02/02 00:51:59;;;;;;;2.97;1.42;;;;;;;4.43;100.00;99595.69;5024000;28;20053;-79
2023/02/02 00:54:26;;;;;;;9.65;2.45;;;;;;;4.52;100.00;99608.34;5032942;28;20660;-79
2023/02/02 00:56:52;;;;;;;8.25;2.28;;;;;;;4.44;100.00;99589.31;5030842;28;20080;-79
2023/02/02 00:59:19;;;;;;;3.95;1.85;;;;;;;4.45;100.00;99588.31;5029477;28;20508;-80
2023/02/02 01:01:45;;;;;;;8.38;2.05;;;;;;;4.57;100.00;99605.25;5025410;28;20059;-79
2023/02/02 01:04:13;;;;;;;5.32;2.00;;;;;;;4.44;100.00;99592.00;5030448;28;20060;-78
2023/02/02 01:06:40;;;;;;;7.60;2.15;;;;;;;4.60;100.00;99630.06;5019514;28;20060;-79
2023/02/02 01:09:07;;;;;;;4.53;1.30;;;;;;;4.44;100.00;99586.63;5028090;28;20064;-79
2023/02/02 01:11:34;;;;;;;5.82;1.83;;;;;;;4.44;100.00;99594.69;5023916;28;20057;-78
2023/02/02 01:14:00;;;;;;;15.70;2.17;;;;;;;4.41;100.00;99590.44;5026989;28;20045;-79
2023/02/02 01:16:28;;;;;;;6.32;1.90;;;;;;;4.50;100.00;99607.63;5024484;28;20045;-79
2023/02/02 01:18:55;;;;;;;19.10;4.00;;;;;;;4.60;100.00;99613.06;5024550;28;20050;-79
2023/02/02 01:21:23;;;;;;;15.55;2.00;;;;;;;4.43;100.00;99596.53;5021863;28;20069;-79
2023/02/02 01:23:50;;;;;;;5.20;1.55;;;;;;;4.46;100.00;99608.00;5029172;28;20059;-78
2023/02/02 01:26:16;;;;;;;12.73;2.28;;;;;;;4.52;100.00;99624.50;5022231;28;20069;-79
2023/02/02 01:28:44;;;;;;;5.97;2.13;;;;;;;4.43;100.00;99599.22;5027762;28;20064;-79
2023/02/02 01:31:12;;;;;;;7.40;1.95;;;;;;;4.42;100.00;99616.38;5027179;28;20095;-79
2023/02/02 01:33:39;;;;;;;9.70;2.10;;;;;;;4.44;100.00;99608.16;5026312;28;20064;-79
2023/02/02 01:36:10;;;;;;;20.25;2.70;;;;;;;4.46;100.00;99608.88;5027594;28;20067;-80
2023/02/02 01:38:39;;;;;;;7.95;1.92;;;;;;;4.51;100.00;99620.09;5029308;28;20052;-79
2023/02/02 01:41:06;;;;;;;7.18;2.00;;;;;;;4.41;100.00;99617.38;5024101;28;20056;-79
2023/02/02 01:43:53;;;;;;;5.97;1.88;;;;;;;4.52;100.00;99624.50;5025082;28;20045;-79
2023/02/02 01:46:22;;;;;;;11.60;2.08;;;;;;;4.51;100.00;99630.03;5022718;28;21323;-79
2023/02/02 01:48:52;;;;;;;8.82;2.15;;;;;;;4.46;100.00;99614.28;5030351;28;20408;-80
2023/02/02 01:51:22;;;;;;;15.82;2.47;;;;;;;4.35;100.00;99585.59;5019712;28;20062;-80
2023/02/02 01:53:52;;;;;;;;;;;;;;;4.54;100.00;99622.50;5017892;28;20493;-79
2023/02/02 01:56:26;;;;;;;9.32;2.45;;;;;;;4.52;100.00;99621.81;5022870;28;19921;-79
2023/02/02 01:58:53;;;;;;;8.57;2.00;;;;;;;4.32;100.00;99588.56;5020921;28;20057;-79
2023/02/02 02:01:20;;;;;;;8.50;2.17;;;;;;;4.34;100.00;99589.28;5022277;28;20053;-79
2023/02/02 02:03:46;;;;;;;10.88;2.13;;;;;;;4.29;100.00;99566.44;5024914;28;20056;-79
2023/02/02 02:06:16;;;;;;;10.63;2.05;;;;;;;4.30;100.00;99585.13;5019788;28;20552;-79
2023/02/02 02:08:51;;;;;;;9.68;2.50;;;;;;;4.45;100.00;99599.09;5028434;28;20057;-79
2023/02/02 02:11:19;;;;;;;11.02;2.53;;;;;;;4.36;100.00;99587.28;5032467;28;20122;-79
2023/02/02 02:16:43;;;;;;;17.88;3.50;;;;;;;4.39;100.00;99602.34;5025182;28;20183;-79
2023/02/02 02:19:34;;;;;;;11.30;3.40;;;;;;;4.51;100.00;99616.56;5028232;28;20049;-79
2023/02/02 02:28:33;;;;;;;19.85;2.67;;;;;;;4.41;100.00;99597.66;5027205;28;20645;-79
2023/02/02 02:31:19;;;;;;;13.27;2.45;;;;;;;4.43;100.00;99604.63;5020349;28;20057;-78
2023/02/02 02:33:53;;;;;;;19.42;3.08;;;;;;;4.51;100.00;99616.56;5023628;28;20061;-79
2023/02/02 02:36:33;;;;;;;30.30;2.70;;;;;;;4.35;100.00;99580.22;5027514;28;20048;-78
2023/02/02 02:39:08;;;;;;;12.98;2.47;;;;;;;4.34;100.00;99577.66;5029140;28;20057;-79
2023/02/02 02:41:41;;;;;;;13.80;4.35;;;;;;;4.35;100.00;99590.13;5022477;28;20060;-80
2023/02/02 02:44:11;;;;;;;17.30;2.35;;;;;;;4.38;100.00;99597.94;5027602;28;20726;-79
2023/02/02 02:46:38;;;;;;;11.07;2.28;;;;;;;4.39;100.00;99602.34;5022501;28;20044;-79
2023/02/02 02:49:09;;;;;;;16.58;4.38;;;;;;;4.47;100.00;99607.03;5028361;28;20061;-79
2023/02/02 02:51:45;;;;;;;9.05;1.90;;;;;;;4.28;100.00;99587.13;5041156;28;20049;-79
2023/02/02 02:54:13;;;;;;;17.92;2.70;;;;;;;4.39;100.00;99605.88;5041060;28;20506;-79
2023/02/02 02:56:53;;;;;;;10.40;2.10;;;;;;;4.36;100.00;99608.00;5044215;28;20053;-78
2023/02/02 02:59:30;;;;;;;13.57;2.10;;;;;;;4.45;100.00;99619.78;5048593;28;20052;-78
2023/02/02 03:02:09;;;;;;;26.70;2.67;;;;;;;4.31;100.00;99594.09;5041377;28;20052;-79
2023/02/02 03:04:46;;;;;;;15.02;2.90;;;;;;;4.31;100.00;99592.25;5040975;28;20128;-79
2023/02/02 03:07:22;;;;;;;23.42;3.35;;;;;;;4.22;100.00;99595.75;5042200;28;20054;-79
2023/02/02 03:09:51;;;;;;;15.70;2.20;;;;;;;4.18;100.00;99589.75;5046181;28;20083;-79
2023/02/02 03:12:18;;;;;;;10.70;2.85;;;;;;;4.27;100.00;99589.94;5050271;28;20567;-79
2023/02/02 03:14:44;;;;;;;14.85;2.70;;;;;;;4.35;100.00;99606.28;5050753;28;20045;-79
2023/02/02 03:17:11;;;;;;;17.80;4.13;;;;;;;4.33;100.00;99613.63;5043021;28;20088;-79
2023/02/02 03:19:39;;;;;;;9.20;2.28;;;;;;;4.29;100.00;99596.03;5042848;28;20397;-79
2023/02/02 03:22:05;;;;;;;10.02;2.38;;;;;;;4.28;100.00;99597.06;5046399;28;20086;-79
2023/02/02 03:24:32;;;;;;;8.45;2.17;;;;;;;4.26;100.00;99597.19;5045151;28;20119;-79
2023/02/02 03:26:58;;;;;;;9.15;2.15;;;;;;;4.44;100.00;99618.91;5045183;28;20422;-79
2023/02/02 03:29:25;;;;;;;6.80;1.85;;;;;;;4.42;100.00;99607.44;5050704;28;20389;-79
2023/02/02 03:31:51;;;;;;;10.88;2.00;;;;;;;4.32;100.00;99590.38;5049317;28;20053;-79
2023/02/02 03:34:18;;;;;;;10.25;2.63;;;;;;;4.44;100.00;99600.06;5046821;28;20049;-79
2023/02/02 03:36:46;;;;;;;7.80;1.77;;;;;;;4.36;100.00;99599.91;5045753;28;20548;-80
2023/02/02 03:39:12;;;;;;;11.63;2.90;;;;;;;4.29;100.00;99588.84;5044014;28;20373;-79
2023/02/02 03:41:39;;;;;;;15.70;2.60;;;;;;;4.47;100.00;99607.03;5047638;28;20060;-79
2023/02/02 03:44:05;;;;;;;11.60;2.08;;;;;;;4.59;100.00;99608.66;5048621;28;20045;-79
2023/02/02 03:46:32;;;;;;;8.77;2.50;;;;;;;4.47;100.00;99602.53;5043798;28;20037;-79
2023/02/02 03:48:58;;;;;;;7.20;1.90;;;;;;;4.42;100.00;99599.38;5049105;28;20489;-79
2023/02/02 03:51:25;;;;;;;17.95;3.67;;;;;;;4.42;100.00;99604.75;5047419;28;20045;-79
2023/02/02 03:53:53;;;;;;;8.75;1.92;;;;;;;4.43;100.00;99604.63;5046678;28;20045;-79
2023/02/02 03:56:19;;;;;;;7.03;2.20;;;;;;;4.43;100.00;99584.94;5050442;28;20042;-79
2023/02/02 03:58:46;;;;;;;3.75;1.67;;;;;;;4.42;100.00;99594.81;5051808;28;20071;-79
2023/02/02 04:01:13;;;;;;;8.45;2.42;;;;;;;4.50;100.00;99598.69;5050213;28;20553;-79
2023/02/02 04:03:40;;;;;;;5.88;2.10;;;;;;;4.40;100.00;99594.13;5050732;28;20136;-79
2023/02/02 04:06:06;;;;;;;16.25;3.67;;;;;;;4.43;100.00;99598.38;5042354;28;20389;-79
2023/02/02 04:08:33;;;;;;;15.77;2.10;;;;;;;4.46;100.00;99605.31;5047276;28;20046;-79
2023/02/02 04:11:02;;;;;;;17.42;2.83;;;;;;;4.38;100.00;99606.00;5038122;28;20546;-79
2023/02/02 04:13:28;;;;;;;6.57;1.80;;;;;;;4.49;100.00;99618.53;5046242;28;20060;-79
2023/02/02 04:15:59;;;;;;;7.50;2.70;;;;;;;4.52;100.00;99618.28;5048760;28;20061;-78
2023/02/02 04:18:25;;;;;;;11.50;2.83;;;;;;;4.43;100.00;99598.38;5043601;28;20041;-79
2023/02/02 04:20:56;;;;;;;14.05;2.30;;;;;;;4.57;100.00;99626.78;5047471;28;20048;-79
2023/02/02 04:23:22;;;;;;;9.10;2.25;;;;;;;4.45;100.00;99601.78;5050349;28;20397;-79
2023/02/02 04:25:49;;;;;;;4.10;1.77;;;;;;;4.64;100.00;99640.56;5049467;28;20042;-79
2023/02/02 04:28:18;;;;;;;6.53;2.03;;;;;;;4.54;100.00;99627.91;5047364;28;20049;-79
2023/02/02 04:30:44;;;;;;;14.02;2.33;;;;;;;4.58;100.00;99634.72;5039462;28;20061;-79
2023/02/02 04:33:11;;;;;;;16.40;2.42;;;;;;;4.67;100.00;99656.47;5048377;28;20047;-79
2023/02/02 04:35:37;;;;;;;11.65;2.17;;;;;;;4.70;100.00;99658.91;5050962;28;20049;-79
2023/02/02 04:38:04;;;;;;;11.05;2.78;;;;;;;4.71;100.00;99664.13;5046860;28;20053;-79
2023/02/02 04:40:30;;;;;;;9.50;2.10;;;;;;;4.57;100.00;99632.16;5049793;28;20041;-79
2023/02/02 04:42:58;;;;;;;8.13;2.92;;;;;;;4.56;100.00;99634.03;5048899;28;20049;-79
2023/02/02 04:45:26;;;;;;;15.82;2.72;;;;;;;4.63;100.00;99639.72;5047522;28;20103;-79
2023/02/02 04:47:52;;;;;;;15.00;2.58;;;;;;;4.63;100.00;99641.56;5046298;28;20488;-79
2023/02/02 04:50:19;;;;;;;10.18;2.45;;;;;;;4.78;100.00;99665.28;5048320;28;20044;-79
2023/02/02 04:52:45;;;;;;;13.57;3.15;;;;;;;4.65;100.00;99656.56;5041705;28;20076;-79
2023/02/02 04:55:12;;;;;;;7.45;2.35;;;;;;;4.77;100.00;99673.50;5048669;28;20045;-79
2023/02/02 04:57:38;;;;;;;10.43;2.22;;;;;;;4.76;100.00;99680.75;5044325;28;20473;-79
2023/02/02 05:00:06;;;;;;;14.93;3.00;;;;;;;4.58;100.00;99648.19;5046729;28;20049;-79
2023/02/02 05:02:37;;;;;;;11.82;2.75;;;;;;;4.76;100.00;99680.75;5049381;28;20407;-79
2023/02/02 05:05:04;;;;;;;22.73;3.33;;;;;;;4.59;100.00;99657.13;5051121;28;20408;-79
2023/02/02 05:07:31;;;;;;;13.38;3.47;;;;;;;4.73;100.00;99696.34;5045701;28;20045;-79
2023/02/02 05:09:57;;;;;;;13.25;2.00;;;;;;;4.65;100.00;99671.88;5044263;28;20052;-80
2023/02/02 05:12:24;;;;;;;16.67;3.33;;;;;;;4.63;100.00;99672.03;5042318;28;20063;-79
2023/02/02 05:14:50;;;;;;;10.10;2.30;;;;;;;4.62;100.00;99683.78;5040687;28;20052;-79
2023/02/02 05:17:17;;;;;;;20.48;2.75;;;;;;;4.72;100.00;99684.69;5038352;28;20056;-79
2023/02/02 05:19:45;;;;;;;8.10;2.20;;;;;;;4.63;100.00;99671.19;5036020;28;20088;-79
2023/02/02 05:22:11;;;;;;;7.50;1.80;;;;;;;4.58;100.00;99663.50;5046848;28;20303;-79
2023/02/02 05:24:38;;;;;;;6.50;1.90;;;;;;;4.60;100.00;99666.91;5043337;28;20585;-79
2023/02/02 05:27:04;;;;;;;11.90;2.85;;;;;;;4.73;100.00;99681.00;5038050;28;20052;-79
2023/02/02 05:29:31;;;;;;;9.82;2.67;;;;;;;4.61;100.00;99668.63;5046595;28;20135;-79
2023/02/02 05:31:58;;;;;;;10.90;2.58;;;;;;;4.60;100.00;99673.13;5049962;28;20045;-79
2023/02/02 05:34:25;;;;;;;10.13;1.92;;;;;;;4.60;100.00;99675.81;5048303;28;20049;-79
2023/02/02 05:36:53;;;;;;;9.07;2.55;;;;;;;4.64;100.00;99686.34;5043755;28;20408;-78
2023/02/02 05:39:19;;;;;;;19.85;3.25;;;;;;;4.67;100.00;99680.72;5041926;28;20063;-79
2023/02/02 05:41:46;;;;;;;15.70;2.67;;;;;;;4.82;100.00;99716.19;5050186;28;20075;-79
2023/02/02 05:44:14;;;;;;;10.90;2.40;;;;;;;4.82;100.00;99708.97;5038312;28;20045;-79
2023/02/02 05:46:41;;;;;;;10.77;2.05;;;;;;;4.74;100.00;99708.78;5042181;28;20459;-79
2023/02/02 05:49:10;;;;;;;11.10;2.45;;;;;;;4.71;100.00;99692.91;5048680;28;20111;-79
2023/02/02 05:51:40;;;;;;;17.67;2.55;;;;;;;4.69;100.00;99692.19;5047015;28;20489;-79
2023/02/02 05:54:08;;;;;;;12.82;2.92;;;;;;;4.74;100.00;99715.06;5037604;28;20054;-79
2023/02/02 05:56:35;;;;;;;8.20;2.97;;;;;;;4.67;100.00;99702.25;5050059;28;20503;-79
2023/02/02 05:59:03;;;;;;;14.57;2.63;;;;;;;4.71;100.00;99714.44;5041328;28;20049;-79
2023/02/02 06:01:30;;;;;;;9.60;2.72;;;;;;;4.80;100.00;99721.72;5047959;28;20483;-80
2023/02/02 06:03:59;;;;;;;18.63;3.15;;;;;;;4.64;100.00;99697.09;5046121;28;20053;-80
2023/02/02 06:06:26;;;;;;;8.77;2.10;;;;;;;4.68;100.00;99714.72;5044192;28;20042;-80
2023/02/02 06:08:53;;;;;;;18.17;3.50;;;;;;;4.75;100.00;99726.66;5051597;28;20068;-80
2023/02/02 06:11:21;;;;;;;18.95;2.72;;;;;;;4.56;100.00;99701.34;5051326;28;20057;-80
2023/02/02 06:13:47;;;;;;;12.73;2.30;;;;;;;4.68;100.00;99718.28;5051174;28;20053;-80
2023/02/02 06:16:14;;;;;;;6.57;2.15;;;;;;;4.67;100.00;99727.34;5048855;28;20053;-80
2023/02/02 06:18:40;;;;;;;8.18;2.58;;;;;;;4.62;100.00;99718.78;5041473;28;20071;-80
2023/02/02 06:21:07;;;;;;;12.77;2.53;;;;;;;4.75;100.00;99748.22;5050712;28;20404;-79
2023/02/02 06:23:34;;;;;;;19.48;2.58;;;;;;;4.59;100.00;99716.34;5032653;28;20053;-79
2023/02/02 06:26:02;;;;;;;11.57;2.05;;;;;;;4.63;100.00;99728.59;5033634;28;20057;-80
2023/02/02 06:28:30;;;;;;;11.60;2.95;;;;;;;4.64;100.00;99727.59;5028796;28;20110;-80
2023/02/02 06:30:56;;;;;;;14.95;2.83;;;;;;;4.59;100.00;99721.75;5029415;28;20049;-80
2023/02/02 06:33:23;;;;;;;16.30;2.92;;;;;;;4.70;100.00;99740.53;5030391;28;20420;-80
2023/02/02 06:35:50;;;;;;;10.57;2.72;;;;;;;4.76;100.00;99760.72;5028406;28;20049;-80
2023/02/02 06:38:17;;;;;;;12.60;2.30;;;;;;;4.60;100.00;99724.31;5029792;28;20057;-80
2023/02/02 06:40:44;;;;;;;14.18;3.28;;;;;;;4.59;100.00;99727.13;5031765;28;20331;-79
2023/02/02 06:43:13;;;;;;;9.60;3.05;;;;;;;4.61;100.00;99730.56;5028594;28;20583;-79
2023/02/02 06:45:41;;;;;;;9.20;2.35;;;;;;;4.75;100.00;99748.22;5036069;28;20053;-79
2023/02/02 06:48:09;;;;;;;7.60;2.58;;;;;;;4.73;100.00;99750.19;5032123;28;20055;-80
2023/02/02 06:50:36;;;;;;;17.52;2.70;;;;;;;4.79;100.00;99757.75;5028332;28;20402;-81
2023/02/02 06:53:04;;;;;;;13.68;2.63;;;;;;;4.62;100.00;99726.88;5023630;28;20053;-80
2023/02/02 06:55:33;;;;;;;18.67;2.75;;;;;;;4.77;100.00;99751.63;5030712;28;20053;-80
2023/02/02 06:58:00;;;;;;;12.43;2.75;;;;;;;4.83;100.00;99758.31;5032420;28;21017;-79
2023/02/02 07:00:28;;;;;;;7.72;1.60;;;;;;;4.76;100.00;99747.25;5032449;28;20446;-79
2023/02/02 07:02:56;;;;;;;16.52;2.47;;;;;;;4.68;100.00;99737.13;5045542;28;20049;-80
2023/02/02 07:05:24;;;;;;;7.45;1.95;;;;;;;4.84;100.00;99757.34;5050163;28;20049;-82
2023/02/02 07:07:51;;;;;;;14.60;3.40;;;;;;;4.67;100.00;99742.66;5054642;28;20093;-80
2023/02/02 07:10:18;;;;;;;9.48;2.22;;;;;;;4.66;100.00;99738.25;5054371;28;20052;-80
2023/02/02 07:12:45;;;;;;;11.23;3.08;;;;;;;4.69;100.00;99743.38;5054363;28;20049;-81
2023/02/02 07:15:11;;;;;;;6.80;2.28;;;;;;;4.66;100.00;99736.38;5054730;28;20040;-79
2023/02/02 07:17:38;;;;;;;13.95;2.80;;;;;;;4.77;100.00;99757.88;5054912;28;20045;-80
2023/02/02 07:20:07;;;;;;;8.48;2.92;;;;;;;4.82;100.00;99762.00;5054164;28;20051;-80
2023/02/02 07:22:33;;;;;;;17.33;2.83;;;;;;;4.78;100.00;99756.03;5054256;28;20488;-80
2023/02/02 07:25:00;;;;;;;15.38;3.10;;;;;;;4.82;100.00;99764.69;5047882;28;20053;-80
2023/02/02 07:27:26;;;;;;;13.32;2.47;;;;;;;4.67;100.00;99737.25;5054651;28;20056;-80
2023/02/02 07:29:53;;;;;;;8.57;2.55;;;;;;;4.69;100.00;99733.44;5054705;28;20514;-80
2023/02/02 07:32:19;;;;;;;7.65;2.42;;;;;;;4.84;100.00;99760.88;5054798;28;20075;-80
2023/02/02 07:34:46;;;;;;;10.90;2.75;;;;;;;4.84;100.00;99752.78;5048165;28;20042;-80
2023/02/02 07:37:14;;;;;;;11.80;2.25;;;;;;;4.78;100.00;99748.78;5034293;28;20413;-81
2023/02/02 07:39:42;;;;;;;10.65;3.00;;;;;;;4.73;100.00;99734.88;5039394;28;20052;-80
2023/02/02 07:42:10;;;;;;;8.15;2.17;;;;;;;4.88;100.00;99775.81;5053329;28;20091;-80
2023/02/02 07:44:37;;;;;;;9.88;3.58;;;;;;;4.84;100.00;99771.66;5051776;28;20056;-81
2023/02/02 07:47:04;;;;;;;20.80;2.55;;;;;;;4.79;100.00;99761.28;5051284;28;20511;-81
2023/02/02 07:49:31;;;;;;;18.08;3.15;;;;;;;4.76;100.00;99748.09;5047197;28;20053;-80
2023/02/02 07:51:58;;;;;;;21.42;3.35;;;;;;;4.78;100.00;99759.56;5049360;28;20052;-81
2023/02/02 07:54:25;;;;;;;10.60;2.90;;;;;;;4.72;100.00;99733.16;5043442;28;20045;-80
2023/02/02 07:56:52;;;;;;;14.05;2.65;;;;;;;4.75;100.00;99743.66;5052564;28;20119;-80
2023/02/02 07:59:18;;;;;;;15.10;2.95;;;;;;;4.85;100.00;99751.81;5052222;28;20071;-81
2023/02/02 08:01:45;;;;;;;13.70;2.78;;;;;;;4.79;100.00;99755.91;5050571;28;20052;-81
2023/02/02 08:04:12;;;;;;;9.13;2.45;;;;;;;4.95;100.00;99787.75;5049248;28;20041;-81
2023/02/02 08:06:39;;;;;;;13.30;2.92;;;;;;;4.90;100.00;99776.50;5045690;28;20049;-81
2023/02/02 08:09:08;;;;;;;19.15;2.95;;;;;;;4.86;100.00;99779.59;5052248;28;20048;-81
2023/02/02 08:11:38;;;;;;;8.35;2.97;;;;;;;4.90;100.00;99781.91;5052754;28;20049;-81
2023/02/02 08:14:05;;;;;;;13.25;2.92;;;;;;;4.97;100.00;99798.41;5051215;28;20411;-81
2023/02/02 08:16:33;;;;;;;3.88;1.48;;;;;;;4.82;100.00;99773.63;5051464;28;20045;-81
2023/02/02 08:19:00;;;;;;;14.23;2.50;;;;;;;4.93;100.00;99789.72;5046629;28;20045;-80
2023/02/02 08:21:26;;;;;;;8.45;2.40;;;;;;;4.79;100.00;99782.00;5051523;28;20059;-81
2023/02/02 08:23:54;;;;;;;18.50;3.10;;;;;;;4.78;100.00;99797.28;5051284;28;20053;-80
2023/02/02 08:26:23;;;;;;;11.10;3.78;;;;;;;4.88;100.00;99807.28;5051674;28;20053;-80
2023/02/02 08:28:53;;;;;;;9.52;2.75;;;;;;;4.84;100.00;99790.50;5050779;28;20056;-80
2023/02/02 08:31:22;;;;;;;14.63;2.13;;;;;;;4.85;100.00;99808.41;5031563;28;20053;-81
2023/02/02 08:33:49;;;;;;;9.27;2.53;;;;;;;4.89;100.00;99804.47;5035948;28;20091;-80
2023/02/02 08:36:17;;;;;;;12.52;2.38;;;;;;;4.83;100.00;99813.03;5048660;28;20041;-80
2023/02/02 08:38:44;;;;;;;14.95;3.00;;;;;;;4.84;100.00;99797.75;5051562;28;20045;-80
2023/02/02 08:41:12;;;;;;;13.93;2.58;;;;;;;4.96;100.00;99813.69;5051381;28;20059;-80
2023/02/02 08:43:39;;;;;;;15.07;3.35;;;;;;;5.05;100.00;99822.81;5048908;28;20044;-81
2023/02/02 08:46:09;;;;;;;12.25;2.20;;;;;;;4.97;100.00;99799.25;5049292;28;20049;-80
2023/02/02 08:48:35;;;;;;;12.55;3.03;;;;;;;4.94;100.00;99780.66;5051606;28;20052;-81
2023/02/02 08:51:04;;;;;;;10.60;2.67;;;;;;;5.14;100.00;99821.19;5051703;28;20052;-80
2023/02/02 08:53:31;;;;;;;7.85;2.40;;;;;;;4.99;100.00;99790.19;5051105;28;20056;-80
2023/02/02 08:55:58;;;;;;;12.40;2.47;;;;;;;5.03;100.00;99803.25;5051506;28;20052;-81
2023/02/02 08:58:25;;;;;;;10.10;2.35;;;;;;;5.20;100.00;99834.13;5040345;28;20049;-81
2023/02/02 09:00:51;;;;;;;15.40;3.92;;;;;;;5.08;100.00;99822.56;5065949;28;20057;-80
2023/02/02 09:03:19;;;;;;;7.18;2.75;;;;;;;5.11;100.00;99830.38;5050496;28;20041;-81
2023/02/02 09:05:46;;;;;;;12.63;3.45;;;;;;;5.02;100.00;99795.31;5047817;28;20057;-80
2023/02/02 09:08:12;;;;;;;7.45;2.17;;;;;;;5.07;100.00;99823.56;5031062;28;20045;-81
2023/02/02 09:10:39;;;;;;;7.78;2.35;;;;;;;5.13;100.00;99838.31;5031089;28;20132;-80
2023/02/02 09:13:05;;;;;;;15.88;2.95;;;;;;;5.17;100.00;99836.25;5040125;28;20393;-80
2023/02/02 09:15:32;;;;;;;13.10;2.95;;;;;;;5.07;100.00;99823.56;5049264;28;20068;-80
2023/02/02 09:17:59;;;;;;;13.90;3.50;;;;;;;5.07;100.00;99825.38;5046842;28;20063;-80
2023/02/02 09:20:27;;;;;;;8.95;2.88;;;;;;;5.17;100.00;99826.31;5050847;28;20049;-80
2023/02/02 09:22:55;;;;;;;11.77;2.58;;;;;;;5.09;100.00;99809.97;5050294;28;20052;-80
2023/02/02 09:25:23;;;;;;;11.00;2.60;;;;;;;5.25;100.00;99845.34;5050871;28;20053;-80
2023/02/02 09:27:50;;;;;;;12.95;3.20;;;;;;;5.30;100.00;99837.72;5042486;28;20049;-80
2023/02/02 09:30:17;;;;;;;10.18;2.40;;;;;;;5.31;100.00;99834.03;5049760;28;20295;-81
2023/02/02 09:32:44;;;;;;;8.73;2.10;;;;;;;5.36;100.00;99844.44;5050578;28;20132;-80
2023/02/02 09:35:11;;;;;;;13.95;3.92;;;;;;;5.27;100.00;99826.38;5050520;28;20547;-81
2023/02/02 09:37:39;;;;;;;16.42;2.45;;;;;;;5.22;100.00;99817.81;5051371;28;20071;-80
2023/02/02 09:40:06;;;;;;;15.95;3.92;;;;;;;5.25;100.00;99836.41;5051153;28;20040;-80
2023/02/02 09:42:50;;;;;;;14.90;2.88;;;;;;;5.30;100.00;99843.13;5041487;28;20417;-80
2023/02/02 09:45:25;;;;;;;17.13;4.28;;;;;;;5.34;100.00;99842.84;5049239;28;20051;-80
2023/02/02 09:47:55;;;;;;;9.55;2.80;;;;;;;5.16;100.00;99843.44;5052925;28;20045;-80
2023/02/02 09:50:39;;;;;;;12.88;3.03;;;;;;;5.19;100.00;99847.72;5056559;28;20061;-80
2023/02/02 09:53:14;;;;;;;22.60;3.47;;;;;;;5.37;100.00;99861.44;5047884;28;20041;-80
2023/02/02 09:55:43;;;;;;;13.73;3.85;;;;;;;5.17;100.00;99845.16;5052203;28;20877;-80
2023/02/02 09:58:18;;;;;;;12.77;2.97;;;;;;;5.20;100.00;99852.16;5068039;28;20045;-80
2023/02/02 10:00:51;;;;;;;16.30;3.22;;;;;;;5.37;100.00;99881.16;5073593;28;20061;-80
2023/02/02 10:03:21;;;;;;;16.17;2.97;;;;;;;5.29;100.00;99860.28;5057795;28;20048;-80
2023/02/02 10:05:55;;;;;;;28.02;3.00;;;;;;;5.27;100.00;99859.56;5055786;28;20049;-80
2023/02/02 10:08:31;;;;;;;11.52;2.60;;;;;;;5.22;100.00;99851.00;5055666;28;20045;-80
2023/02/02 10:11:00;;;;;;;11.68;2.50;;;;;;;5.25;100.00;99849.88;5047570;28;20447;-81
2023/02/02 10:13:33;;;;;;;9.93;3.03;;;;;;;5.27;100.00;99864.94;5053697;28;20087;-80
2023/02/02 10:16:07;;;;;;;15.10;3.72;;;;;;;5.26;100.00;99854.31;5038756;28;20056;-80
2023/02/02 10:18:43;;;;;;;10.48;2.72;;;;;;;5.21;100.00;99846.63;5039766;28;20530;-79
2023/02/02 10:21:15;;;;;;;13.52;3.40;;;;;;;5.19;100.00;99840.50;5054289;28;20143;-80
2023/02/02 10:23:45;;;;;;;10.02;3.08;;;;;;;5.27;100.00;99845.22;5045507;28;20056;-80
2023/02/02 10:26:17;;;;;;;16.42;3.05;;;;;;;5.36;100.00;99838.16;5054021;28;20049;-80
2023/02/02 10:28:56;;;;;;;13.32;3.20;;;;;;;5.41;100.00;99844.03;5054851;28;20381;-81
2023/02/02 10:31:36;;;;;;;14.75;3.30;;;;;;;5.52;100.00;99860.09;5054959;28;20041;-80
2023/02/02 10:34:13;;;;;;;13.00;2.10;;;;;;;5.47;100.00;99849.72;5049994;28;20047;-81
2023/02/02 10:36:52;;;;;;;12.27;3.20;;;;;;;5.50;100.00;99857.53;5047577;28;20055;-80
2023/02/02 10:39:29;;;;;;;10.95;2.85;;;;;;;5.48;100.00;99837.94;5054327;28;20500;-81
2023/02/02 10:42:11;;;;;;;17.35;3.70;;;;;;;5.48;100.00;99854.13;5052597;28;20056;-80
2023/02/02 10:44:46;;;;;;;11.70;3.20;;;;;;;5.57;100.00;99857.84;5047341;28;20049;-81
2023/02/02 10:47:20;;;;;;;15.93;2.83;;;;;;;5.50;100.00;99852.13;5038971;28;20057;-80
2023/02/02 10:49:51;;;;;;;12.65;2.65;;;;;;;5.60;100.00;99865.69;5053740;28;20053;-80
2023/02/02 10:52:25;;;;;;;11.77;3.17;;;;;;;5.48;100.00;99864.91;5054393;28;20053;-80
2023/02/02 10:55:01;;;;;;;14.50;2.75;;;;;;;5.41;100.00;99865.59;5054228;28;20056;-80
2023/02/02 10:57:47;;;;;;;14.63;2.97;;;;;;;5.52;100.00;99872.72;5053133;28;20098;-80
2023/02/02 11:00:20;;;;;;;13.10;3.10;;;;;;;5.44;100.00;99871.56;5045031;28;20045;-80
2023/02/02 11:02:48;;;;;;;13.98;3.22;;;;;;;5.29;100.00;99868.34;5052968;28;20044;-80
2023/02/02 11:08:12;;;;;;;7.05;2.17;;;;;;;5.27;100.00;99870.34;5051545;28;20067;-80
2023/02/02 11:10:41;;;;;;;9.20;2.55;;;;;;;5.20;100.00;99874.56;5045960;28;20052;-80
2023/02/02 11:13:14;;;;;;;11.07;3.03;;;;;;;5.18;100.00;99862.19;5050720;28;20052;-80
2023/02/02 11:15:42;;;;;;;11.23;2.40;;;;;;;5.24;100.00;99865.22;5047345;28;20055;-81
2023/02/02 11:18:28;;;;;;;8.45;2.47;;;;;;;5.30;100.00;99869.22;5053677;28;20057;-81
2023/02/02 11:20:56;;;;;;;12.68;2.88;;;;;;;5.27;100.00;99854.16;5053304;28;20048;-81
2023/02/02 11:23:25;;;;;;;11.70;2.63;;;;;;;5.38;100.00;99879.34;5051004;28;20064;-81
2023/02/02 11:26:04;;;;;;;18.75;2.92;;;;;;;5.37;100.00;99864.16;5053214;28;20051;-81
2023/02/02 11:28:34;;;;;;;6.35;2.65;;;;;;;5.45;100.00;99865.19;5044185;28;20534;-80
2023/02/02 11:31:02;;;;;;;13.15;1.83;;;;;;;5.50;100.00;99872.88;5053282;28;20496;-80
2023/02/02 11:33:31;;;;;;;6.90;2.10;;;;;;;5.51;100.00;99879.97;5052400;28;20056;-80
2023/02/02 11:36:01;;;;;;;7.70;2.50;;;;;;;5.44;100.00;99865.31;5052957;28;20084;-81
2023/02/02 11:38:28;;;;;;;14.30;3.80;;;;;;;5.44;100.00;99873.41;5051307;28;20053;-81
2023/02/02 11:41:03;;;;;;;8.98;2.70;;;;;;;5.36;100.00;99868.69;5052525;28;20811;-80
2023/02/02 11:43:39;;;;;;;6.40;2.22;;;;;;;5.46;100.00;99880.34;5043539;28;20040;-80
2023/02/02 11:46:16;;;;;;;5.53;1.90;;;;;;;5.34;100.00;99853.63;5051153;28;20048;-80
2023/02/02 11:48:54;;;;;;;9.07;2.50;;;;;;;5.38;100.00;99849.69;5052801;28;20075;-81
2023/02/02 11:51:23;;;;;;;8.98;2.33;;;;;;;5.42;100.00;99872.66;5052653;28;20076;-80